createdAt,value
2017-07-26T00:00:04.487Z,99798
2017-07-26T00:02:34.378Z,99813
2017-07-26T00:05:04.567Z,99812
2017-07-26T00:07:34.411Z,99802
2017-07-26T00:10:04.636Z,99807
2017-07-26T00:12:34.501Z,99800
2017-07-26T00:15:04.345Z,99800
2017-07-26T00:17:34.707Z,99807
2017-07-26T00:20:04.551Z,99802
2017-07-26T00:22:34.812Z,99808
2017-07-26T00:25:04.670Z,99807
2017-07-26T00:27:34.565Z,99806
2017-07-26T00:30:04.768Z,99807
2017-07-26T00:32:34.619Z,99804
2017-07-26T00:35:04.468Z,99804
2017-07-26T00:37:34.646Z,99796
2017-07-26T00:40:04.558Z,99794
2017-07-26T00:42:34.447Z,99802
2017-07-26T00:45:04.642Z,99801
2017-07-26T00:47:34.493Z,99803
2017-07-26T00:50:04.351Z,99803
2017-07-26T00:52:34.596Z,99805
2017-07-26T00:55:04.442Z,99802
2017-07-26T00:57:34.624Z,99797
2017-07-26T01:00:04.458Z,99804
2017-07-26T01:02:34.296Z,99800
2017-07-26T01:05:04.460Z,99801
2017-07-26T01:07:34.295Z,99800
2017-07-26T01:10:04.538Z,99805
2017-07-26T01:12:34.380Z,99802
2017-07-26T01:15:04.567Z,99798
2017-07-26T01:17:34.420Z,99798
2017-07-26T01:20:04.610Z,99798
2017-07-26T01:22:34.475Z,99797
2017-07-26T01:25:04.366Z,99797
2017-07-26T01:27:34.610Z,99805
2017-07-26T01:30:04.783Z,99797
2017-07-26T01:32:34.993Z,99794
2017-07-26T01:35:04.870Z,99799
2017-07-26T01:37:35.283Z,99802
2017-07-26T01:40:05.139Z,99797
2017-07-26T01:42:35.420Z,99798
2017-07-26T01:45:05.292Z,99796
2017-07-26T01:47:35.557Z,99804
2017-07-26T01:50:05.408Z,99797
2017-07-26T01:52:35.781Z,99788
2017-07-26T01:55:05.646Z,99794
2017-07-26T01:57:35.494Z,99798
2017-07-26T02:00:05.736Z,99799
2017-07-26T02:02:35.603Z,99798
2017-07-26T02:05:05.463Z,99796
2017-07-26T02:07:35.656Z,99800
2017-07-26T02:10:05.490Z,99813
2017-07-26T02:12:35.345Z,99801
2017-07-26T02:15:05.605Z,99809
2017-07-26T02:17:35.666Z,99807
2017-07-26T02:20:05.966Z,99813
2017-07-26T02:22:35.810Z,99810
2017-07-26T02:25:06.087Z,99818
2017-07-26T02:27:35.933Z,99818
2017-07-26T02:30:06.187Z,99822
2017-07-26T02:32:36.044Z,99819
2017-07-26T02:35:06.265Z,99807
2017-07-26T02:37:36.123Z,99812
2017-07-26T02:40:06.315Z,99817
2017-07-26T02:42:36.193Z,99813
2017-07-26T02:45:06.424Z,99807
2017-07-26T02:47:36.267Z,99818
2017-07-26T02:50:06.479Z,99822
2017-07-26T02:52:36.338Z,99821
2017-07-26T02:55:06.690Z,99820
2017-07-26T02:57:36.544Z,99812
2017-07-26T03:00:06.839Z,99813
2017-07-26T03:02:36.717Z,99809
2017-07-26T03:05:06.966Z,99804
2017-07-26T03:07:36.828Z,99819
2017-07-26T03:10:07.132Z,99819
2017-07-26T03:12:36.987Z,99819
2017-07-26T03:15:07.231Z,99809
2017-07-26T03:17:37.099Z,99817
2017-07-26T03:20:07.363Z,99810
2017-07-26T03:22:37.296Z,99807
2017-07-26T03:25:07.502Z,99812
2017-07-26T03:27:37.340Z,99802
2017-07-26T03:30:07.647Z,99805
2017-07-26T03:32:37.532Z,99800
2017-07-26T03:35:07.874Z,99797
2017-07-26T03:37:37.741Z,99795
2017-07-26T03:40:08.011Z,99798
2017-07-26T03:42:37.879Z,99793
2017-07-26T03:45:08.163Z,99790
2017-07-26T03:47:38.065Z,99789
2017-07-26T03:50:08.293Z,99783
2017-07-26T03:52:38.152Z,99780
2017-07-26T03:55:08.431Z,99787
2017-07-26T03:57:38.285Z,99787
2017-07-26T04:00:08.662Z,99792
2017-07-26T04:02:38.529Z,99788
2017-07-26T04:05:08.788Z,99794
2017-07-26T04:07:38.637Z,99792
2017-07-26T04:10:08.527Z,99802
2017-07-26T04:12:38.835Z,99798
2017-07-26T04:15:08.710Z,99797
2017-07-26T04:17:38.596Z,99799
2017-07-26T04:20:08.821Z,99801
2017-07-26T04:22:38.692Z,99801
2017-07-26T04:25:08.566Z,99808
2017-07-26T04:27:38.849Z,99809
2017-07-26T04:30:08.702Z,99811
2017-07-26T04:32:38.597Z,99806
2017-07-26T04:35:08.985Z,99807
2017-07-26T04:37:38.869Z,99810
2017-07-26T04:40:09.225Z,99818
2017-07-26T04:42:39.097Z,99809
2017-07-26T04:45:09.483Z,99802
2017-07-26T04:47:39.331Z,99808
2017-07-26T04:50:09.579Z,99812
2017-07-26T04:52:39.755Z,99804
2017-07-26T04:55:09.994Z,99811
2017-07-26T04:57:39.854Z,99809
2017-07-26T05:00:10.054Z,99808
2017-07-26T05:02:39.911Z,99820
2017-07-26T05:05:10.103Z,99806
2017-07-26T05:07:39.958Z,99808
2017-07-26T05:10:10.244Z,99812
2017-07-26T05:12:40.114Z,99812
2017-07-26T05:15:10.547Z,99811
2017-07-26T05:17:40.397Z,99801
2017-07-26T05:20:10.790Z,99804
2017-07-26T05:22:40.664Z,99803
2017-07-26T05:25:10.547Z,99808
2017-07-26T05:27:40.942Z,99809
2017-07-26T05:30:10.807Z,99810
2017-07-26T05:32:41.145Z,99812
2017-07-26T05:35:10.992Z,99805
2017-07-26T05:37:41.497Z,99810
2017-07-26T05:40:11.373Z,99818
2017-07-26T05:42:41.663Z,99810
2017-07-26T05:45:11.516Z,99818
2017-07-26T05:47:41.397Z,99823
2017-07-26T05:50:11.707Z,99813
2017-07-26T05:52:41.574Z,99819
2017-07-26T05:55:11.485Z,99819
2017-07-26T05:57:41.712Z,99819
2017-07-26T06:00:11.570Z,99821
2017-07-26T06:02:41.441Z,99813
2017-07-26T06:05:11.747Z,99822
2017-07-26T06:07:41.615Z,99810
2017-07-26T06:10:11.476Z,99810
2017-07-26T06:12:41.661Z,99801
2017-07-26T06:15:11.539Z,99812
2017-07-26T06:17:41.422Z,99804
2017-07-26T06:20:11.635Z,99800
2017-07-26T06:22:41.498Z,99804
2017-07-26T06:25:11.376Z,99798
2017-07-26T06:27:41.645Z,99798
2017-07-26T06:30:11.555Z,99801
2017-07-26T06:32:41.792Z,99789
2017-07-26T06:35:11.724Z,99799
2017-07-26T06:37:41.967Z,99798
2017-07-26T06:40:11.848Z,99806
2017-07-26T06:42:42.068Z,99813
2017-07-26T06:45:12.729Z,99809
2017-07-26T06:47:43.020Z,99821
2017-07-26T06:50:12.915Z,99822
2017-07-26T06:52:43.176Z,99821
2017-07-26T06:55:13.105Z,99827
2017-07-26T06:57:43.366Z,99829
2017-07-26T07:00:13.220Z,99821
2017-07-26T07:02:43.513Z,99830
2017-07-26T07:05:13.374Z,99826
2017-07-26T07:07:43.569Z,99835
2017-07-26T07:10:13.430Z,99837
2017-07-26T07:12:43.656Z,99847
2017-07-26T07:15:13.521Z,99851
2017-07-26T07:17:43.384Z,99849
2017-07-26T07:20:14.114Z,99843
2017-07-26T07:22:44.050Z,99847
2017-07-26T07:25:14.332Z,99853
2017-07-26T07:27:44.185Z,99846
2017-07-26T07:30:14.568Z,99855
2017-07-26T07:32:44.432Z,99847
2017-07-26T07:35:14.829Z,99851
2017-07-26T07:37:44.825Z,99852
2017-07-26T07:40:15.036Z,99808
2017-07-26T07:42:44.933Z,99847
2017-07-26T07:45:15.151Z,99854
2017-07-26T07:47:45.014Z,99851
2017-07-26T07:50:15.254Z,99851
2017-07-26T07:52:45.113Z,99850
2017-07-26T07:55:15.321Z,99852
2017-07-26T07:57:45.233Z,99845
2017-07-26T08:00:15.838Z,99850
2017-07-26T08:02:45.710Z,99851
2017-07-26T08:05:15.563Z,99845
2017-07-26T08:07:45.764Z,99848
2017-07-26T08:10:15.624Z,99852
2017-07-26T08:12:45.513Z,99849
2017-07-26T08:15:15.823Z,99827
2017-07-26T08:17:45.717Z,99850
2017-07-26T08:20:16.011Z,99843
2017-07-26T08:22:45.899Z,99851
2017-07-26T08:25:16.120Z,99848
2017-07-26T08:27:45.990Z,99854
2017-07-26T08:30:16.227Z,99845
2017-07-26T08:32:46.118Z,99854
2017-07-26T08:35:16.349Z,99845
2017-07-26T08:37:46.197Z,99852
2017-07-26T08:40:16.643Z,99855
2017-07-26T08:42:46.495Z,99849
2017-07-26T08:45:16.828Z,99855
2017-07-26T08:47:46.691Z,99861
2017-07-26T08:50:16.617Z,99857
2017-07-26T08:52:46.841Z,99853
2017-07-26T08:55:16.702Z,99860
2017-07-26T08:57:46.605Z,99854
2017-07-26T09:00:16.845Z,99852
2017-07-26T09:02:46.710Z,99849
2017-07-26T09:05:16.615Z,99848
2017-07-26T09:07:46.917Z,99842
2017-07-26T09:10:16.794Z,99844
2017-07-26T09:12:47.221Z,99844
2017-07-26T09:15:17.073Z,99845
2017-07-26T09:17:47.308Z,99842
2017-07-26T09:20:17.160Z,99849
2017-07-26T09:22:47.351Z,99852
2017-07-26T09:25:17.190Z,99845
2017-07-26T09:27:47.474Z,99854
2017-07-26T09:30:17.332Z,99849
2017-07-26T09:32:47.536Z,99849
2017-07-26T09:35:17.396Z,99851
2017-07-26T09:37:47.700Z,99841
2017-07-26T09:40:17.552Z,99849
2017-07-26T09:42:47.824Z,99852
2017-07-26T09:45:17.688Z,99839
2017-07-26T09:47:47.553Z,99852
2017-07-26T09:50:17.853Z,99854
2017-07-26T09:52:47.704Z,99856
2017-07-26T09:55:17.624Z,99857
2017-07-26T09:57:47.829Z,99853
2017-07-26T10:00:17.704Z,99866
2017-07-26T10:02:47.599Z,99865
2017-07-26T10:05:17.939Z,99868
2017-07-26T10:07:47.825Z,99861
2017-07-26T10:10:18.090Z,99869
2017-07-26T10:12:48.154Z,99868
2017-07-26T10:15:18.439Z,99874
2017-07-26T10:17:48.349Z,99871
2017-07-26T10:20:18.678Z,99863
2017-07-26T10:22:48.533Z,99864
2017-07-26T10:25:18.392Z,99865
2017-07-26T10:27:48.615Z,99860
2017-07-26T10:30:18.503Z,99860
2017-07-26T10:32:48.422Z,99868
2017-07-26T10:35:18.626Z,99859
2017-07-26T10:37:48.487Z,99868
2017-07-26T10:40:18.362Z,99866
2017-07-26T10:42:48.596Z,99869
2017-07-26T10:45:18.445Z,99867
2017-07-26T10:47:48.705Z,99860
2017-07-26T10:50:18.650Z,99870
2017-07-26T10:52:48.524Z,99869
2017-07-26T10:55:19.400Z,99865
2017-07-26T10:57:49.277Z,99873
2017-07-26T11:00:19.550Z,99877
2017-07-26T11:02:50.490Z,99879
2017-07-26T11:05:20.816Z,99873
2017-07-26T11:07:50.698Z,99878
2017-07-26T11:10:20.589Z,99874
2017-07-26T11:12:50.870Z,99877
2017-07-26T11:15:20.732Z,99881
2017-07-26T11:17:50.598Z,99870
2017-07-26T11:20:21.011Z,99866
2017-07-26T11:22:51.709Z,99872
2017-07-26T11:25:22.015Z,99865
2017-07-26T11:27:51.874Z,99870
2017-07-26T11:30:22.183Z,99871
2017-07-26T11:32:52.079Z,99867
2017-07-26T11:35:22.353Z,99880
2017-07-26T11:37:52.282Z,99874
2017-07-26T11:40:22.609Z,99889
2017-07-26T11:42:52.475Z,99884
2017-07-26T11:45:22.679Z,99880
2017-07-26T11:47:52.546Z,99872
2017-07-26T11:50:22.551Z,99869
2017-07-26T11:52:52.838Z,99873
2017-07-26T11:55:22.721Z,99876
2017-07-26T11:57:52.592Z,99886
2017-07-26T12:00:23.305Z,99885
2017-07-26T12:02:53.205Z,99877
2017-07-26T12:05:23.688Z,99880
2017-07-26T12:07:53.541Z,99877
2017-07-26T12:10:23.787Z,99885
2017-07-26T12:12:53.653Z,99878
2017-07-26T12:15:23.534Z,99890
2017-07-26T12:17:53.763Z,99894
2017-07-26T12:20:23.605Z,99889
2017-07-26T12:22:53.556Z,99882
2017-07-26T12:25:23.799Z,99896
2017-07-26T12:27:53.693Z,99880
2017-07-26T12:30:23.593Z,99885
2017-07-26T12:32:55.551Z,99863
2017-07-26T12:35:25.411Z,99877
2017-07-26T12:37:55.713Z,99884
2017-07-26T12:40:25.573Z,99875
2017-07-26T12:42:55.489Z,99872
2017-07-26T12:45:25.686Z,99871
2017-07-26T12:47:55.696Z,99877
2017-07-26T12:50:25.565Z,99871
2017-07-26T12:52:55.814Z,99870
2017-07-26T12:55:26.441Z,99872
2017-07-26T12:57:56.701Z,99854
2017-07-26T13:00:27.322Z,99864
2017-07-26T13:02:58.549Z,99855
2017-07-26T13:05:28.411Z,99863
2017-07-26T13:07:58.811Z,99863
2017-07-26T13:10:28.733Z,99857
2017-07-26T13:12:58.584Z,99857
2017-07-26T13:15:28.791Z,99846
2017-07-26T13:17:58.664Z,99866
2017-07-26T13:20:28.621Z,99860
2017-07-26T13:22:58.805Z,99863
2017-07-26T13:25:28.669Z,99851
2017-07-26T13:27:58.530Z,99854
2017-07-26T13:30:28.804Z,99850
2017-07-26T13:32:58.626Z,99852
2017-07-26T13:35:28.513Z,99849
2017-07-26T13:37:58.696Z,99848
2017-07-26T13:40:28.548Z,99844
2017-07-26T13:42:58.458Z,99851
2017-07-26T13:45:28.707Z,99836
2017-07-26T13:47:58.667Z,99844
2017-07-26T13:50:28.557Z,99834
2017-07-26T13:52:58.850Z,99841
2017-07-26T13:55:28.721Z,99844
2017-07-26T13:57:58.643Z,99838
2017-07-26T14:00:30.457Z,99836
2017-07-26T14:03:00.318Z,99830
2017-07-26T14:05:30.769Z,99843
2017-07-26T14:08:00.642Z,99842
2017-07-26T14:10:30.926Z,99848
2017-07-26T14:13:00.770Z,99849
2017-07-26T14:15:31.054Z,99858
2017-07-26T14:18:00.948Z,99848
2017-07-26T14:20:31.275Z,99821
2017-07-26T14:23:01.164Z,99845
2017-07-26T14:25:31.555Z,99844
2017-07-26T14:28:01.426Z,99842
2017-07-26T14:33:12.753Z,99852
2017-07-26T14:35:42.673Z,99847
2017-07-26T14:38:12.578Z,99853
2017-07-26T14:40:42.986Z,99846
2017-07-26T14:43:12.895Z,99848
2017-07-26T14:45:43.145Z,99844
2017-07-26T14:48:13.036Z,99842
2017-07-26T14:50:43.355Z,99838
2017-07-26T14:53:13.238Z,99839
2017-07-26T14:55:43.470Z,99843
2017-07-26T14:58:13.386Z,99840
2017-07-26T15:00:43.752Z,99832
2017-07-26T15:03:13.714Z,99838
2017-07-26T15:05:43.612Z,99842
2017-07-26T15:08:13.858Z,99832
2017-07-26T15:10:43.728Z,99835
2017-07-26T15:13:13.985Z,99832
2017-07-26T15:15:43.907Z,99836
2017-07-26T15:18:14.133Z,99835
2017-07-26T15:20:44.038Z,99833
2017-07-26T15:23:14.405Z,99844
2017-07-26T15:25:44.345Z,99846
2017-07-26T15:28:14.650Z,99849
2017-07-26T15:30:44.505Z,99840
2017-07-26T15:33:14.979Z,99843
2017-07-26T15:35:44.903Z,99845
2017-07-26T15:38:15.118Z,99848
2017-07-26T15:40:45.036Z,99851
2017-07-26T15:43:15.332Z,99855
2017-07-26T15:45:45.199Z,99857
2017-07-26T15:48:15.537Z,99862
2017-07-26T15:50:45.407Z,99861
2017-07-26T15:53:15.894Z,99868
2017-07-26T15:55:46.742Z,99879
2017-07-26T15:58:16.964Z,99869
2017-07-26T16:00:46.873Z,99873
2017-07-26T16:03:17.212Z,99878
2017-07-26T16:05:47.100Z,99875
2017-07-26T16:08:17.431Z,99873
2017-07-26T16:10:48.305Z,99880
2017-07-26T16:13:18.519Z,99876
2017-07-26T16:15:48.405Z,99882
2017-07-26T16:18:18.741Z,99878
2017-07-26T16:20:48.607Z,99877
2017-07-26T16:23:18.494Z,99876
2017-07-26T16:25:48.740Z,99884
2017-07-26T16:28:18.664Z,99880
2017-07-26T16:30:48.540Z,99887
2017-07-26T16:33:18.743Z,99883
2017-07-26T16:35:48.675Z,99891
2017-07-26T16:38:18.550Z,99898
2017-07-26T16:40:48.910Z,99898
2017-07-26T16:43:18.775Z,99903
2017-07-26T16:45:48.977Z,99898
2017-07-26T16:48:18.998Z,99898
2017-07-26T16:50:49.267Z,99904
2017-07-26T16:53:19.146Z,99911
2017-07-26T16:55:49.400Z,99900
2017-07-26T16:58:19.261Z,99897
2017-07-26T17:00:49.666Z,99904
2017-07-26T17:03:19.634Z,99908
2017-07-26T17:05:50.123Z,99896
2017-07-26T17:08:20.806Z,99897
2017-07-26T17:10:51.123Z,99905
2017-07-26T17:13:21.247Z,99910
2017-07-26T17:15:51.636Z,99907
2017-07-26T17:18:21.668Z,99900
2017-07-26T17:20:52.183Z,99908
2017-07-26T17:23:22.311Z,99907
2017-07-26T17:25:52.754Z,99912
2017-07-26T17:28:22.769Z,99915
2017-07-26T17:30:53.072Z,99907
2017-07-26T17:33:23.133Z,99916
2017-07-26T17:35:53.714Z,99904
2017-07-26T17:38:23.655Z,99912
2017-07-26T17:40:54.228Z,99906
2017-07-26T17:43:24.127Z,99908
2017-07-26T17:45:54.399Z,99910
2017-07-26T17:48:24.288Z,99920
2017-07-26T17:50:54.581Z,99927
2017-07-26T17:53:24.488Z,99929
2017-07-26T17:55:55.027Z,99924
2017-07-26T17:58:24.927Z,99929
2017-07-26T18:00:55.219Z,99921
2017-07-26T18:03:25.113Z,99927
2017-07-26T18:05:55.389Z,99928
2017-07-26T18:08:25.259Z,99936
2017-07-26T18:10:55.585Z,99932
2017-07-26T18:13:25.463Z,99936
2017-07-26T18:15:55.725Z,99927
2017-07-26T18:18:25.654Z,99907
2017-07-26T18:20:55.603Z,99932
2017-07-26T18:23:25.916Z,99930
2017-07-26T18:25:55.799Z,99934
2017-07-26T18:28:26.147Z,99939
2017-07-26T18:30:56.103Z,99930
2017-07-26T18:33:26.366Z,99940
2017-07-26T18:35:56.240Z,99946
2017-07-26T18:38:26.655Z,99940
2017-07-26T18:40:56.610Z,99942
2017-07-26T18:43:26.947Z,99944
2017-07-26T18:45:56.946Z,99938
2017-07-26T18:48:27.402Z,99935
2017-07-26T18:50:57.474Z,99945
2017-07-26T18:53:27.714Z,99952
2017-07-26T18:55:57.607Z,99946
2017-07-26T18:58:27.495Z,99936
2017-07-26T19:00:57.859Z,99944
2017-07-26T19:03:27.867Z,99953
2017-07-26T19:05:58.128Z,99953
2017-07-26T19:08:28.085Z,99955
2017-07-26T19:10:58.476Z,99954
2017-07-26T19:13:28.491Z,99963
2017-07-26T19:15:58.901Z,99956
2017-07-26T19:18:28.810Z,99959
2017-07-26T19:20:59.154Z,99960
2017-07-26T19:23:29.083Z,99958
2017-07-26T19:25:59.575Z,99960
2017-07-26T19:28:29.500Z,99951
2017-07-26T19:30:59.830Z,99958
2017-07-26T19:33:29.794Z,99968
2017-07-26T19:36:00.997Z,99957
2017-07-26T19:38:31.171Z,99969
2017-07-26T19:41:02.164Z,99963
2017-07-26T19:43:32.183Z,99973
2017-07-26T19:46:02.586Z,99966
2017-07-26T19:48:32.492Z,99966
2017-07-26T19:51:03.021Z,99971
2017-07-26T19:53:32.970Z,99967
2017-07-26T19:56:03.346Z,99970
2017-07-26T19:58:33.229Z,99975
2017-07-26T20:01:03.579Z,99974
2017-07-26T20:03:33.489Z,99981
2017-07-26T20:06:03.768Z,99973
2017-07-26T20:08:33.673Z,99966
2017-07-26T20:11:03.674Z,99979
2017-07-26T20:13:34.021Z,99980
2017-07-26T20:16:03.906Z,99972
2017-07-26T20:18:34.168Z,99985
2017-07-26T20:21:04.128Z,99983
2017-07-26T20:23:34.520Z,99981
2017-07-26T20:26:04.409Z,99978
2017-07-26T20:28:34.895Z,99981
2017-07-26T20:31:04.829Z,99981
2017-07-26T20:33:35.385Z,99987
2017-07-26T20:36:05.279Z,99983
2017-07-26T20:38:35.712Z,99990
2017-07-26T20:41:05.763Z,99993
2017-07-26T20:43:36.037Z,99990
2017-07-26T20:46:05.985Z,99986
2017-07-26T20:48:36.272Z,99978
2017-07-26T20:51:06.371Z,99991
2017-07-26T20:53:36.673Z,99999
2017-07-26T20:56:06.538Z,99997
2017-07-26T20:58:36.530Z,99998
2017-07-26T21:01:06.767Z,99992
2017-07-26T21:03:36.647Z,99991
2017-07-26T21:06:06.581Z,99990
2017-07-26T21:08:36.799Z,99988
2017-07-26T21:11:06.767Z,99990
2017-07-26T21:13:37.127Z,99990
2017-07-26T21:16:07.020Z,99992
2017-07-26T21:18:37.259Z,99988
2017-07-26T21:21:07.101Z,99993
2017-07-26T21:23:37.311Z,99991
2017-07-26T21:26:07.200Z,99987
2017-07-26T21:28:37.414Z,99995
2017-07-26T21:31:07.277Z,99988
2017-07-26T21:33:37.588Z,99987
2017-07-26T21:36:07.469Z,99997
2017-07-26T21:38:37.665Z,99995
2017-07-26T21:41:07.661Z,99992
2017-07-26T21:43:37.552Z,99995
2017-07-26T21:46:07.891Z,99996
2017-07-26T21:48:37.774Z,99998
2017-07-26T21:51:08.051Z,99989
2017-07-26T21:53:37.937Z,99990
2017-07-26T21:56:08.209Z,99988
2017-07-26T21:58:38.088Z,99992
2017-07-26T22:01:08.328Z,99988
2017-07-26T22:03:38.256Z,99986
2017-07-26T22:06:08.456Z,99991
2017-07-26T22:08:38.421Z,99987
2017-07-26T22:11:08.696Z,99982
2017-07-26T22:13:38.571Z,99987
2017-07-26T22:16:08.462Z,99984
2017-07-26T22:18:38.634Z,99985
2017-07-26T22:21:08.491Z,99986
2017-07-26T22:23:38.383Z,99988
2017-07-26T22:26:08.595Z,99981
2017-07-26T22:28:38.461Z,99983
2017-07-26T22:31:08.659Z,99977
2017-07-26T22:33:38.521Z,99977
2017-07-26T22:36:08.418Z,99981
2017-07-26T22:38:38.688Z,99980
2017-07-26T22:41:08.553Z,99984
2017-07-26T22:43:38.431Z,99988
2017-07-26T22:46:08.794Z,99978
2017-07-26T22:48:38.640Z,99977
2017-07-26T22:51:08.514Z,99972
2017-07-26T22:53:38.862Z,99968
2017-07-26T22:56:08.802Z,99970
2017-07-26T22:58:39.123Z,99971
2017-07-26T23:01:09.108Z,99975
2017-07-26T23:03:39.471Z,99967
2017-07-26T23:06:09.341Z,99971
2017-07-26T23:08:39.772Z,99962
2017-07-26T23:11:09.643Z,99966
2017-07-26T23:13:40.006Z,99965
2017-07-26T23:16:09.900Z,99965
2017-07-26T23:18:40.082Z,99968
2017-07-26T23:21:09.935Z,99966
2017-07-26T23:23:40.216Z,99966
2017-07-26T23:26:10.093Z,99968
2017-07-26T23:28:40.384Z,99964
2017-07-26T23:31:10.373Z,99958
2017-07-26T23:33:40.874Z,99956
2017-07-26T23:36:10.724Z,99953
2017-07-26T23:38:40.634Z,99941
2017-07-26T23:41:10.865Z,99947
2017-07-26T23:43:41.002Z,99954
2017-07-26T23:46:11.368Z,99952
2017-07-26T23:48:41.269Z,99942
2017-07-26T23:51:11.490Z,99946
2017-07-26T23:53:41.471Z,99949
2017-07-26T23:56:11.754Z,99951
2017-07-26T23:58:41.611Z,99947
